Galdakao, Spain
Current Conditions -  °F | °C
As of 11:30 PM on Thursday 27 Nov 2014 (Local Time) from LEBB Reporting Station
Clear Clear  
Wind Chill: 63°   Ceiling: Unl
Heat Index: 63°   Visibility: 6mi
Dew Point: 46°   Wind: 14mph
Humidity: 55%   Direction: 150°SSE
Pressure: 29.21"   Gusts: NA
Location:  43.23°N, 2.83°W
Report Text: LEBB 272230Z 15012KT 100V180 CAVOK 17/08 Q0989 NOSIG
Loading
Personal Weather Stations






























Interactive Weather Map New forecast layout! Learn more

10-Day Weather Forecast

Advertisements
Track Severe Weather on mobile